sensor_id;sensor_type;location;lat;lon;timestamp;P1;durP1;ratioP1;P2;durP2;ratioP2
56830;SDS011;42713;42.676;23.352;2023-04-01T00:01:45;22.33;;;9.55;;
56830;SDS011;42713;42.676;23.352;2023-04-01T00:04:11;36.58;;;12.85;;
56830;SDS011;42713;42.676;23.352;2023-04-01T00:06:36;28.38;;;12.65;;
56830;SDS011;42713;42.676;23.352;2023-04-01T00:09:01;27.95;;;11.55;;
56830;SDS011;42713;42.676;23.352;2023-04-01T00:11:27;25.35;;;11.68;;
56830;SDS011;42713;42.676;23.352;2023-04-01T00:13:53;26.58;;;11.38;;
56830;SDS011;42713;42.676;23.352;2023-04-01T00:16:18;24.30;;;11.07;;
56830;SDS011;42713;42.676;23.352;2023-04-01T00:18:44;25.30;;;11.07;;
56830;SDS011;42713;42.676;23.352;2023-04-01T00:21:12;24.27;;;10.30;;
56830;SDS011;42713;42.676;23.352;2023-04-01T00:23:37;26.80;;;10.80;;
56830;SDS011;42713;42.676;23.352;2023-04-01T00:26:03;23.17;;;10.60;;
56830;SDS011;42713;42.676;23.352;2023-04-01T00:28:28;21.83;;;10.45;;
56830;SDS011;42713;42.676;23.352;2023-04-01T00:30:54;23.58;;;10.88;;
56830;SDS011;42713;42.676;23.352;2023-04-01T00:33:20;22.58;;;11.15;;
56830;SDS011;42713;42.676;23.352;2023-04-01T00:35:46;32.67;;;10.55;;
56830;SDS011;42713;42.676;23.352;2023-04-01T00:38:11;22.55;;;8.60;;
56830;SDS011;42713;42.676;23.352;2023-04-01T00:40:39;19.30;;;9.43;;
56830;SDS011;42713;42.676;23.352;2023-04-01T00:43:13;18.30;;;8.60;;
56830;SDS011;42713;42.676;23.352;2023-04-01T00:45:45;17.98;;;8.65;;
56830;SDS011;42713;42.676;23.352;2023-04-01T00:48:14;23.63;;;8.38;;
56830;SDS011;42713;42.676;23.352;2023-04-01T00:50:44;20.80;;;8.90;;
56830;SDS011;42713;42.676;23.352;2023-04-01T00:53:13;16.42;;;7.60;;
56830;SDS011;42713;42.676;23.352;2023-04-01T00:55:41;18.05;;;8.27;;
56830;SDS011;42713;42.676;23.352;2023-04-01T00:58:14;19.48;;;8.23;;
56830;SDS011;42713;42.676;23.352;2023-04-01T01:00:42;24.90;;;8.23;;
56830;SDS011;42713;42.676;23.352;2023-04-01T01:03:08;19.10;;;7.70;;
56830;SDS011;42713;42.676;23.352;2023-04-01T01:11:05;17.92;;;7.03;;
56830;SDS011;42713;42.676;23.352;2023-04-01T01:16:20;15.45;;;6.75;;
56830;SDS011;42713;42.676;23.352;2023-04-01T01:18:50;18.33;;;7.32;;
56830;SDS011;42713;42.676;23.352;2023-04-01T01:24:40;17.20;;;6.95;;
56830;SDS011;42713;42.676;23.352;2023-04-01T01:37:44;13.05;;;5.88;;
56830;SDS011;42713;42.676;23.352;2023-04-01T01:40:12;16.40;;;6.38;;
56830;SDS011;42713;42.676;23.352;2023-04-01T01:42:41;24.63;;;5.88;;
56830;SDS011;42713;42.676;23.352;2023-04-01T01:45:12;17.52;;;6.82;;
56830;SDS011;42713;42.676;23.352;2023-04-01T01:47:42;18.35;;;6.32;;
56830;SDS011;42713;42.676;23.352;2023-04-01T01:50:10;16.63;;;4.93;;
56830;SDS011;42713;42.676;23.352;2023-04-01T01:52:37;14.00;;;4.95;;
56830;SDS011;42713;42.676;23.352;2023-04-01T01:55:02;15.75;;;4.70;;
56830;SDS011;42713;42.676;23.352;2023-04-01T01:57:29;16.98;;;4.85;;
56830;SDS011;42713;42.676;23.352;2023-04-01T02:00:02;16.73;;;4.90;;
56830;SDS011;42713;42.676;23.352;2023-04-01T02:02:39;17.52;;;5.20;;
56830;SDS011;42713;42.676;23.352;2023-04-01T02:05:10;12.82;;;4.50;;
56830;SDS011;42713;42.676;23.352;2023-04-01T02:07:41;13.73;;;4.75;;
56830;SDS011;42713;42.676;23.352;2023-04-01T02:10:12;13.52;;;5.13;;
56830;SDS011;42713;42.676;23.352;2023-04-01T02:12:38;12.43;;;4.60;;
56830;SDS011;42713;42.676;23.352;2023-04-01T02:15:08;15.32;;;4.45;;
56830;SDS011;42713;42.676;23.352;2023-04-01T02:17:38;12.63;;;4.75;;
56830;SDS011;42713;42.676;23.352;2023-04-01T02:20:08;12.77;;;4.97;;
56830;SDS011;42713;42.676;23.352;2023-04-01T02:22:55;13.90;;;4.88;;
56830;SDS011;42713;42.676;23.352;2023-04-01T02:25:26;14.65;;;4.57;;
56830;SDS011;42713;42.676;23.352;2023-04-01T02:27:54;15.38;;;4.47;;
56830;SDS011;42713;42.676;23.352;2023-04-01T02:30:21;13.45;;;5.00;;
56830;SDS011;42713;42.676;23.352;2023-04-01T02:32:48;14.15;;;4.65;;
56830;SDS011;42713;42.676;23.352;2023-04-01T02:35:15;14.90;;;4.03;;
56830;SDS011;42713;42.676;23.352;2023-04-01T02:37:43;13.05;;;4.45;;
56830;SDS011;42713;42.676;23.352;2023-04-01T02:40:12;14.55;;;4.00;;
56830;SDS011;42713;42.676;23.352;2023-04-01T02:42:40;12.02;;;3.58;;
56830;SDS011;42713;42.676;23.352;2023-04-01T02:45:06;16.45;;;3.95;;
56830;SDS011;42713;42.676;23.352;2023-04-01T02:47:31;17.10;;;3.88;;
56830;SDS011;42713;42.676;23.352;2023-04-01T02:49:57;10.77;;;3.50;;
56830;SDS011;42713;42.676;23.352;2023-04-01T02:52:27;15.88;;;4.63;;
56830;SDS011;42713;42.676;23.352;2023-04-01T02:54:54;15.05;;;4.95;;
56830;SDS011;42713;42.676;23.352;2023-04-01T02:57:21;17.35;;;6.00;;
56830;SDS011;42713;42.676;23.352;2023-04-01T02:59:46;15.00;;;5.18;;
56830;SDS011;42713;42.676;23.352;2023-04-01T03:02:12;18.98;;;5.57;;
56830;SDS011;42713;42.676;23.352;2023-04-01T03:04:37;21.80;;;5.63;;
56830;SDS011;42713;42.676;23.352;2023-04-01T03:07:03;17.63;;;6.65;;
56830;SDS011;42713;42.676;23.352;2023-04-01T03:09:28;18.50;;;6.55;;
56830;SDS011;42713;42.676;23.352;2023-04-01T03:11:54;20.10;;;7.20;;
56830;SDS011;42713;42.676;23.352;2023-04-01T03:14:19;19.02;;;7.47;;
56830;SDS011;42713;42.676;23.352;2023-04-01T03:16:45;21.70;;;8.43;;
56830;SDS011;42713;42.676;23.352;2023-04-01T03:19:10;25.02;;;9.57;;
56830;SDS011;42713;42.676;23.352;2023-04-01T03:21:36;19.80;;;8.45;;
56830;SDS011;42713;42.676;23.352;2023-04-01T03:24:01;23.60;;;9.15;;
56830;SDS011;42713;42.676;23.352;2023-04-01T03:26:27;21.23;;;9.10;;
56830;SDS011;42713;42.676;23.352;2023-04-01T03:28:53;20.55;;;8.07;;
56830;SDS011;42713;42.676;23.352;2023-04-01T03:31:18;18.52;;;8.88;;
56830;SDS011;42713;42.676;23.352;2023-04-01T03:33:44;20.33;;;9.45;;
56830;SDS011;42713;42.676;23.352;2023-04-01T03:36:10;23.65;;;9.60;;
56830;SDS011;42713;42.676;23.352;2023-04-01T03:38:37;23.40;;;9.13;;
56830;SDS011;42713;42.676;23.352;2023-04-01T03:41:02;20.60;;;8.98;;
56830;SDS011;42713;42.676;23.352;2023-04-01T03:43:28;21.08;;;8.85;;
56830;SDS011;42713;42.676;23.352;2023-04-01T03:45:55;21.85;;;8.75;;
56830;SDS011;42713;42.676;23.352;2023-04-01T03:48:22;19.88;;;8.80;;
56830;SDS011;42713;42.676;23.352;2023-04-01T03:50:48;24.83;;;8.60;;
56830;SDS011;42713;42.676;23.352;2023-04-01T03:53:13;21.23;;;8.38;;
56830;SDS011;42713;42.676;23.352;2023-04-01T03:55:40;19.20;;;8.30;;
56830;SDS011;42713;42.676;23.352;2023-04-01T03:58:06;30.38;;;8.40;;
56830;SDS011;42713;42.676;23.352;2023-04-01T04:00:32;15.93;;;7.53;;
56830;SDS011;42713;42.676;23.352;2023-04-01T04:02:58;21.67;;;8.52;;
56830;SDS011;42713;42.676;23.352;2023-04-01T04:05:24;25.05;;;8.73;;
56830;SDS011;42713;42.676;23.352;2023-04-01T04:07:51;19.48;;;9.27;;
56830;SDS011;42713;42.676;23.352;2023-04-01T04:10:17;23.95;;;9.00;;
56830;SDS011;42713;42.676;23.352;2023-04-01T04:12:44;26.77;;;9.57;;
56830;SDS011;42713;42.676;23.352;2023-04-01T04:15:09;18.02;;;8.40;;
56830;SDS011;42713;42.676;23.352;2023-04-01T04:17:35;21.13;;;8.18;;
56830;SDS011;42713;42.676;23.352;2023-04-01T04:20:01;23.30;;;8.35;;
56830;SDS011;42713;42.676;23.352;2023-04-01T04:22:27;21.35;;;8.73;;
56830;SDS011;42713;42.676;23.352;2023-04-01T04:24:52;20.92;;;8.43;;
56830;SDS011;42713;42.676;23.352;2023-04-01T04:27:18;26.17;;;9.77;;
56830;SDS011;42713;42.676;23.352;2023-04-01T04:29:43;25.02;;;10.32;;
56830;SDS011;42713;42.676;23.352;2023-04-01T04:32:09;24.33;;;8.95;;
56830;SDS011;42713;42.676;23.352;2023-04-01T04:34:34;17.90;;;6.90;;
56830;SDS011;42713;42.676;23.352;2023-04-01T04:37:00;16.48;;;7.50;;
56830;SDS011;42713;42.676;23.352;2023-04-01T04:39:25;24.10;;;7.63;;
56830;SDS011;42713;42.676;23.352;2023-04-01T04:41:59;23.33;;;7.03;;
56830;SDS011;42713;42.676;23.352;2023-04-01T04:44:24;21.58;;;8.35;;
56830;SDS011;42713;42.676;23.352;2023-04-01T04:46:50;16.88;;;6.82;;
56830;SDS011;42713;42.676;23.352;2023-04-01T04:49:16;19.70;;;7.45;;
56830;SDS011;42713;42.676;23.352;2023-04-01T04:51:41;19.95;;;7.88;;
56830;SDS011;42713;42.676;23.352;2023-04-01T04:54:07;21.50;;;6.90;;
56830;SDS011;42713;42.676;23.352;2023-04-01T04:56:33;18.25;;;6.63;;
56830;SDS011;42713;42.676;23.352;2023-04-01T04:59:01;15.55;;;6.40;;
56830;SDS011;42713;42.676;23.352;2023-04-01T05:01:28;22.42;;;7.15;;
56830;SDS011;42713;42.676;23.352;2023-04-01T05:03:53;15.90;;;6.45;;
56830;SDS011;42713;42.676;23.352;2023-04-01T05:06:19;13.25;;;6.50;;
56830;SDS011;42713;42.676;23.352;2023-04-01T05:08:45;16.65;;;6.18;;
56830;SDS011;42713;42.676;23.352;2023-04-01T05:11:12;13.85;;;4.93;;
56830;SDS011;42713;42.676;23.352;2023-04-01T05:13:41;22.95;;;5.60;;
56830;SDS011;42713;42.676;23.352;2023-04-01T05:16:14;15.13;;;6.75;;
56830;SDS011;42713;42.676;23.352;2023-04-01T05:18:41;16.55;;;6.28;;
56830;SDS011;42713;42.676;23.352;2023-04-01T05:21:08;16.05;;;5.63;;
56830;SDS011;42713;42.676;23.352;2023-04-01T05:23:35;13.77;;;5.18;;
56830;SDS011;42713;42.676;23.352;2023-04-01T05:26:08;12.52;;;5.28;;
56830;SDS011;42713;42.676;23.352;2023-04-01T05:28:36;19.38;;;6.03;;
56830;SDS011;42713;42.676;23.352;2023-04-01T05:31:03;14.65;;;5.05;;
56830;SDS011;42713;42.676;23.352;2023-04-01T05:33:29;16.40;;;4.80;;
56830;SDS011;42713;42.676;23.352;2023-04-01T05:35:56;28.00;;;5.30;;
56830;SDS011;42713;42.676;23.352;2023-04-01T05:38:21;16.70;;;4.95;;
56830;SDS011;42713;42.676;23.352;2023-04-01T05:40:47;15.38;;;5.75;;
56830;SDS011;42713;42.676;23.352;2023-04-01T05:43:12;15.30;;;5.15;;
56830;SDS011;42713;42.676;23.352;2023-04-01T05:45:38;17.10;;;5.15;;
56830;SDS011;42713;42.676;23.352;2023-04-01T05:48:04;13.43;;;5.00;;
56830;SDS011;42713;42.676;23.352;2023-04-01T05:50:29;15.25;;;5.30;;
56830;SDS011;42713;42.676;23.352;2023-04-01T05:52:55;15.10;;;5.53;;
56830;SDS011;42713;42.676;23.352;2023-04-01T05:55:21;12.88;;;5.18;;
56830;SDS011;42713;42.676;23.352;2023-04-01T05:57:46;19.52;;;5.70;;
56830;SDS011;42713;42.676;23.352;2023-04-01T06:00:14;15.30;;;4.82;;
56830;SDS011;42713;42.676;23.352;2023-04-01T06:02:40;15.95;;;4.88;;
56830;SDS011;42713;42.676;23.352;2023-04-01T06:05:12;14.10;;;4.70;;
56830;SDS011;42713;42.676;23.352;2023-04-01T06:07:42;17.65;;;4.88;;
56830;SDS011;42713;42.676;23.352;2023-04-01T06:10:14;11.98;;;4.18;;
56830;SDS011;42713;42.676;23.352;2023-04-01T06:12:47;18.10;;;4.30;;
56830;SDS011;42713;42.676;23.352;2023-04-01T06:18:31;11.77;;;4.30;;
56830;SDS011;42713;42.676;23.352;2023-04-01T06:32:37;10.93;;;4.57;;
56830;SDS011;42713;42.676;23.352;2023-04-01T06:35:11;12.82;;;4.88;;
56830;SDS011;42713;42.676;23.352;2023-04-01T06:54:33;16.75;;;4.88;;
56830;SDS011;42713;42.676;23.352;2023-04-01T06:59:50;13.48;;;4.63;;
56830;SDS011;42713;42.676;23.352;2023-04-01T07:02:25;13.70;;;4.50;;
56830;SDS011;42713;42.676;23.352;2023-04-01T07:04:59;11.73;;;4.10;;
56830;SDS011;42713;42.676;23.352;2023-04-01T07:10:17;15.98;;;3.97;;
56830;SDS011;42713;42.676;23.352;2023-04-01T07:12:51;14.38;;;4.53;;
56830;SDS011;42713;42.676;23.352;2023-04-01T07:15:33;12.82;;;4.32;;
56830;SDS011;42713;42.676;23.352;2023-04-01T07:18:03;12.65;;;4.35;;
56830;SDS011;42713;42.676;23.352;2023-04-01T07:20:36;14.98;;;4.65;;
56830;SDS011;42713;42.676;23.352;2023-04-01T07:25:58;12.23;;;4.25;;
56830;SDS011;42713;42.676;23.352;2023-04-01T07:28:26;15.48;;;4.65;;
56830;SDS011;42713;42.676;23.352;2023-04-01T07:31:05;15.88;;;4.80;;
56830;SDS011;42713;42.676;23.352;2023-04-01T07:42:15;19.92;;;4.95;;
56830;SDS011;42713;42.676;23.352;2023-04-01T07:44:54;15.13;;;4.35;;
56830;SDS011;42713;42.676;23.352;2023-04-01T07:47:28;11.52;;;4.68;;
56830;SDS011;42713;42.676;23.352;2023-04-01T07:56:10;17.85;;;5.03;;
56830;SDS011;42713;42.676;23.352;2023-04-01T08:22:30;20.45;;;4.18;;
56830;SDS011;42713;42.676;23.352;2023-04-01T08:25:04;12.10;;;3.15;;
56830;SDS011;42713;42.676;23.352;2023-04-01T08:33:59;13.70;;;4.50;;
56830;SDS011;42713;42.676;23.352;2023-04-01T08:36:36;15.52;;;3.40;;
56830;SDS011;42713;42.676;23.352;2023-04-01T08:39:06;14.57;;;4.10;;
56830;SDS011;42713;42.676;23.352;2023-04-01T08:55:49;13.40;;;3.92;;
56830;SDS011;42713;42.676;23.352;2023-04-01T08:58:46;15.30;;;4.40;;
56830;SDS011;42713;42.676;23.352;2023-04-01T09:09:39;8.93;;;2.70;;
56830;SDS011;42713;42.676;23.352;2023-04-01T09:12:24;12.30;;;2.90;;
56830;SDS011;42713;42.676;23.352;2023-04-01T09:14:58;11.80;;;3.70;;
56830;SDS011;42713;42.676;23.352;2023-04-01T09:34:06;11.93;;;2.88;;
56830;SDS011;42713;42.676;23.352;2023-04-01T09:39:34;13.82;;;3.08;;
56830;SDS011;42713;42.676;23.352;2023-04-01T09:45:04;12.73;;;3.45;;
56830;SDS011;42713;42.676;23.352;2023-04-01T09:50:27;13.68;;;2.90;;
56830;SDS011;42713;42.676;23.352;2023-04-01T10:06:24;13.95;;;3.40;;
56830;SDS011;42713;42.676;23.352;2023-04-01T10:35:08;10.40;;;2.95;;
56830;SDS011;42713;42.676;23.352;2023-04-01T10:43:45;10.75;;;2.75;;
56830;SDS011;42713;42.676;23.352;2023-04-01T11:03:35;16.33;;;3.53;;
56830;SDS011;42713;42.676;23.352;2023-04-01T11:06:30;10.65;;;3.17;;
56830;SDS011;42713;42.676;23.352;2023-04-01T11:32:53;9.95;;;2.13;;
56830;SDS011;42713;42.676;23.352;2023-04-01T11:35:29;10.60;;;3.47;;
56830;SDS011;42713;42.676;23.352;2023-04-01T11:41:19;8.93;;;1.40;;
56830;SDS011;42713;42.676;23.352;2023-04-01T11:49:40;9.18;;;2.20;;
56830;SDS011;42713;42.676;23.352;2023-04-01T11:57:57;10.82;;;2.53;;
56830;SDS011;42713;42.676;23.352;2023-04-01T12:00:35;11.18;;;2.25;;
56830;SDS011;42713;42.676;23.352;2023-04-01T12:14:47;13.85;;;2.90;;
56830;SDS011;42713;42.676;23.352;2023-04-01T12:19:59;10.45;;;3.30;;
56830;SDS011;42713;42.676;23.352;2023-04-01T12:31:12;12.77;;;3.70;;
56830;SDS011;42713;42.676;23.352;2023-04-01T13:00:38;12.45;;;3.22;;
56830;SDS011;42713;42.676;23.352;2023-04-01T13:06:28;10.68;;;3.42;;
56830;SDS011;42713;42.676;23.352;2023-04-01T13:12:47;10.70;;;3.40;;
56830;SDS011;42713;42.676;23.352;2023-04-01T13:17:36;15.75;;;4.93;;
56830;SDS011;42713;42.676;23.352;2023-04-01T13:25:47;11.15;;;3.30;;
56830;SDS011;42713;42.676;23.352;2023-04-01T13:29:11;14.65;;;3.67;;
56830;SDS011;42713;42.676;23.352;2023-04-01T13:31:26;10.30;;;3.25;;
56830;SDS011;42713;42.676;23.352;2023-04-01T13:36:52;10.95;;;3.17;;
56830;SDS011;42713;42.676;23.352;2023-04-01T13:42:16;7.60;;;2.13;;
56830;SDS011;42713;42.676;23.352;2023-04-01T13:45:08;10.00;;;2.60;;
56830;SDS011;42713;42.676;23.352;2023-04-01T14:01:35;7.20;;;2.22;;
56830;SDS011;42713;42.676;23.352;2023-04-01T14:04:23;8.93;;;2.72;;
56830;SDS011;42713;42.676;23.352;2023-04-01T14:19:58;14.40;;;5.10;;
56830;SDS011;42713;42.676;23.352;2023-04-01T14:28:42;8.85;;;3.20;;
56830;SDS011;42713;42.676;23.352;2023-04-01T14:36:39;9.82;;;3.33;;
56830;SDS011;42713;42.676;23.352;2023-04-01T14:39:15;11.10;;;3.70;;
56830;SDS011;42713;42.676;23.352;2023-04-01T14:45:35;9.05;;;3.00;;
56830;SDS011;42713;42.676;23.352;2023-04-01T14:48:25;11.13;;;2.30;;
56830;SDS011;42713;42.676;23.352;2023-04-01T14:51:03;11.90;;;2.42;;
56830;SDS011;42713;42.676;23.352;2023-04-01T14:53:36;8.70;;;2.30;;
56830;SDS011;42713;42.676;23.352;2023-04-01T14:56:07;9.38;;;2.30;;
56830;SDS011;42713;42.676;23.352;2023-04-01T14:58:41;6.05;;;1.75;;
56830;SDS011;42713;42.676;23.352;2023-04-01T15:01:13;12.02;;;2.00;;
56830;SDS011;42713;42.676;23.352;2023-04-01T15:04:15;8.68;;;2.05;;
56830;SDS011;42713;42.676;23.352;2023-04-01T15:09:58;7.13;;;2.15;;
56830;SDS011;42713;42.676;23.352;2023-04-01T15:12:30;8.88;;;2.42;;
56830;SDS011;42713;42.676;23.352;2023-04-01T15:15:12;6.20;;;1.85;;
56830;SDS011;42713;42.676;23.352;2023-04-01T15:17:44;8.48;;;2.22;;
56830;SDS011;42713;42.676;23.352;2023-04-01T15:23:10;8.18;;;1.95;;
56830;SDS011;42713;42.676;23.352;2023-04-01T15:26:13;8.50;;;2.28;;
56830;SDS011;42713;42.676;23.352;2023-04-01T15:28:46;5.43;;;1.92;;
56830;SDS011;42713;42.676;23.352;2023-04-01T15:31:38;6.05;;;2.10;;
56830;SDS011;42713;42.676;23.352;2023-04-01T15:37:37;9.27;;;2.35;;
56830;SDS011;42713;42.676;23.352;2023-04-01T15:40:22;10.02;;;2.53;;
56830;SDS011;42713;42.676;23.352;2023-04-01T15:42:55;6.22;;;2.28;;
56830;SDS011;42713;42.676;23.352;2023-04-01T15:45:31;8.52;;;2.38;;
56830;SDS011;42713;42.676;23.352;2023-04-01T15:58:59;6.95;;;1.48;;
56830;SDS011;42713;42.676;23.352;2023-04-01T16:01:47;4.20;;;1.70;;
56830;SDS011;42713;42.676;23.352;2023-04-01T16:07:15;7.93;;;2.60;;
56830;SDS011;42713;42.676;23.352;2023-04-01T16:12:23;8.70;;;3.13;;
56830;SDS011;42713;42.676;23.352;2023-04-01T16:20:54;7.30;;;3.53;;
56830;SDS011;42713;42.676;23.352;2023-04-01T16:23:56;9.75;;;3.47;;
56830;SDS011;42713;42.676;23.352;2023-04-01T16:31:52;7.03;;;3.00;;
56830;SDS011;42713;42.676;23.352;2023-04-01T16:34:34;6.85;;;3.00;;
56830;SDS011;42713;42.676;23.352;2023-04-01T16:37:08;7.65;;;3.47;;
56830;SDS011;42713;42.676;23.352;2023-04-01T16:39:47;8.73;;;3.33;;
56830;SDS011;42713;42.676;23.352;2023-04-01T16:45:26;7.85;;;3.22;;
56830;SDS011;42713;42.676;23.352;2023-04-01T16:58:09;4.18;;;2.13;;
56830;SDS011;42713;42.676;23.352;2023-04-01T17:03:20;4.57;;;1.90;;
56830;SDS011;42713;42.676;23.352;2023-04-01T17:19:51;5.00;;;1.95;;
56830;SDS011;42713;42.676;23.352;2023-04-01T17:39:17;4.63;;;1.30;;
56830;SDS011;42713;42.676;23.352;2023-04-01T17:41:55;4.15;;;1.52;;
56830;SDS011;42713;42.676;23.352;2023-04-01T17:52:47;4.22;;;1.95;;
56830;SDS011;42713;42.676;23.352;2023-04-01T17:55:53;3.95;;;1.70;;
56830;SDS011;42713;42.676;23.352;2023-04-01T18:07:01;6.57;;;2.50;;
56830;SDS011;42713;42.676;23.352;2023-04-01T18:20:58;5.22;;;2.00;;
56830;SDS011;42713;42.676;23.352;2023-04-01T18:23:47;5.75;;;2.25;;
56830;SDS011;42713;42.676;23.352;2023-04-01T18:26:24;4.72;;;2.17;;
56830;SDS011;42713;42.676;23.352;2023-04-01T18:37:34;11.20;;;1.90;;
56830;SDS011;42713;42.676;23.352;2023-04-01T18:40:12;4.13;;;1.65;;
56830;SDS011;42713;42.676;23.352;2023-04-01T18:45:45;4.75;;;2.00;;
56830;SDS011;42713;42.676;23.352;2023-04-01T18:51:49;7.90;;;3.08;;
56830;SDS011;42713;42.676;23.352;2023-04-01T18:54:33;4.72;;;1.98;;
56830;SDS011;42713;42.676;23.352;2023-04-01T18:59:45;5.72;;;2.28;;
56830;SDS011;42713;42.676;23.352;2023-04-01T19:16:38;4.85;;;1.80;;
56830;SDS011;42713;42.676;23.352;2023-04-01T19:19:29;4.85;;;1.60;;
56830;SDS011;42713;42.676;23.352;2023-04-01T19:22:18;7.22;;;1.83;;
56830;SDS011;42713;42.676;23.352;2023-04-01T19:25:02;6.00;;;2.30;;
56830;SDS011;42713;42.676;23.352;2023-04-01T19:27:37;5.05;;;1.60;;
56830;SDS011;42713;42.676;23.352;2023-04-01T19:30:19;4.07;;;1.55;;
56830;SDS011;42713;42.676;23.352;2023-04-01T19:38:41;3.03;;;1.50;;
56830;SDS011;42713;42.676;23.352;2023-04-01T19:46:42;1.95;;;1.13;;
56830;SDS011;42713;42.676;23.352;2023-04-01T19:59:57;2.95;;;1.08;;
56830;SDS011;42713;42.676;23.352;2023-04-01T20:02:49;1.65;;;1.10;;
56830;SDS011;42713;42.676;23.352;2023-04-01T20:05:39;2.38;;;1.20;;
56830;SDS011;42713;42.676;23.352;2023-04-01T20:08:19;3.30;;;1.27;;
56830;SDS011;42713;42.676;23.352;2023-04-01T20:13:36;4.00;;;1.40;;
56830;SDS011;42713;42.676;23.352;2023-04-01T20:16:04;2.78;;;1.30;;
56830;SDS011;42713;42.676;23.352;2023-04-01T20:23:57;3.08;;;1.40;;
56830;SDS011;42713;42.676;23.352;2023-04-01T20:26:31;4.18;;;1.60;;
56830;SDS011;42713;42.676;23.352;2023-04-01T20:31:42;4.18;;;1.70;;
56830;SDS011;42713;42.676;23.352;2023-04-01T20:37:14;4.68;;;1.60;;
56830;SDS011;42713;42.676;23.352;2023-04-01T20:40:12;3.60;;;1.40;;
56830;SDS011;42713;42.676;23.352;2023-04-01T20:49:10;4.55;;;1.50;;
56830;SDS011;42713;42.676;23.352;2023-04-01T20:52:24;2.17;;;1.20;;
56830;SDS011;42713;42.676;23.352;2023-04-01T21:07:40;4.43;;;1.65;;
56830;SDS011;42713;42.676;23.352;2023-04-01T21:10:32;3.53;;;1.45;;
56830;SDS011;42713;42.676;23.352;2023-04-01T21:16:01;4.00;;;1.40;;
56830;SDS011;42713;42.676;23.352;2023-04-01T21:21:31;3.10;;;1.30;;
56830;SDS011;42713;42.676;23.352;2023-04-01T21:26:43;3.25;;;1.15;;
56830;SDS011;42713;42.676;23.352;2023-04-01T21:37:52;6.38;;;1.63;;
56830;SDS011;42713;42.676;23.352;2023-04-01T21:40:31;3.85;;;1.40;;
56830;SDS011;42713;42.676;23.352;2023-04-01T21:43:18;3.67;;;1.30;;
56830;SDS011;42713;42.676;23.352;2023-04-01T21:46:11;4.55;;;1.20;;
56830;SDS011;42713;42.676;23.352;2023-04-01T22:08:20;3.60;;;1.20;;
56830;SDS011;42713;42.676;23.352;2023-04-01T22:22:22;3.80;;;1.60;;
56830;SDS011;42713;42.676;23.352;2023-04-01T22:25:21;3.58;;;1.30;;
56830;SDS011;42713;42.676;23.352;2023-04-01T22:28:09;6.00;;;1.50;;
56830;SDS011;42713;42.676;23.352;2023-04-01T22:36:24;8.70;;;1.48;;
56830;SDS011;42713;42.676;23.352;2023-04-01T22:50:35;9.90;;;3.80;;
56830;SDS011;42713;42.676;23.352;2023-04-01T22:53:28;9.25;;;3.50;;
56830;SDS011;42713;42.676;23.352;2023-04-01T22:56:07;7.07;;;2.33;;
56830;SDS011;42713;42.676;23.352;2023-04-01T22:58:46;8.55;;;2.58;;
56830;SDS011;42713;42.676;23.352;2023-04-01T23:01:24;8.45;;;2.65;;
56830;SDS011;42713;42.676;23.352;2023-04-01T23:03:54;4.40;;;1.60;;
56830;SDS011;42713;42.676;23.352;2023-04-01T23:06:26;5.00;;;1.42;;
56830;SDS011;42713;42.676;23.352;2023-04-01T23:11:44;3.75;;;1.45;;
56830;SDS011;42713;42.676;23.352;2023-04-01T23:16:54;4.13;;;1.48;;
56830;SDS011;42713;42.676;23.352;2023-04-01T23:22:26;5.60;;;1.40;;
56830;SDS011;42713;42.676;23.352;2023-04-01T23:36:09;1.95;;;0.93;;
56830;SDS011;42713;42.676;23.352;2023-04-01T23:38:38;3.55;;;1.00;;
56830;SDS011;42713;42.676;23.352;2023-04-01T23:41:06;6.03;;;1.13;;
56830;SDS011;42713;42.676;23.352;2023-04-01T23:43:37;3.47;;;1.10;;
56830;SDS011;42713;42.676;23.352;2023-04-01T23:46:06;4.20;;;1.02;;
56830;SDS011;42713;42.676;23.352;2023-04-01T23:48:34;2.50;;;1.00;;
56830;SDS011;42713;42.676;23.352;2023-04-01T23:51:04;2.35;;;0.90;;
56830;SDS011;42713;42.676;23.352;2023-04-01T23:56:43;1.42;;;0.77;;
